Yeadon, Pennsylvania
Current Conditions -  °F | °C
As of 12:54 PM on Sunday 23 Nov 2014 (Local Time) from KPHL Reporting Station
Broken Clouds Broken Clouds  
Wind Chill: 52°   Ceiling: 25000
Heat Index: 52°   Visibility: 10mi
Dew Point: 25°   Wind: 12mph
Humidity: 35%   Direction: 210°SSW
Pressure: 30.18"   Gusts: NA
Location:  39.94°N, 75.25°W
Report Text: KPHL 231754Z 21010KT 10SM FEW100 FEW180 BKN250 11/M04 A3018 RMK AO2 SLP220 T01111039 10111 20044 56015 $
Loading
Personal Weather Stations






























Interactive Weather Map New forecast layout! Learn more

10-Day Weather Forecast

Advertisements
Track Severe Weather on mobile